createdAt,value
2022-11-03T00:01:36.192Z,3.93
2022-11-03T00:04:04.238Z,3.67
2022-11-03T00:06:33.901Z,3.43
2022-11-03T00:09:04.263Z,3.93
2022-11-03T00:11:33.802Z,3.57
2022-11-03T00:14:02.050Z,4.27
2022-11-03T00:16:30.036Z,3.57
2022-11-03T00:18:57.943Z,3.83
2022-11-03T00:21:26.172Z,4.37
2022-11-03T00:23:55.709Z,4.53
2022-11-03T00:26:25.505Z,4.40
2022-11-03T00:28:54.616Z,3.33
2022-11-03T00:31:24.607Z,4.23
2022-11-03T00:33:52.683Z,4.10
2022-11-03T00:36:22.322Z,4.37
2022-11-03T00:38:50.828Z,4.70
2022-11-03T00:41:21.683Z,4.10
2022-11-03T00:43:50.443Z,3.70
2022-11-03T00:46:19.819Z,4.40
2022-11-03T00:48:48.331Z,3.90
2022-11-03T00:51:20.198Z,3.80
2022-11-03T00:53:50.049Z,3.87
2022-11-03T00:56:22.102Z,3.70
2022-11-03T00:58:51.157Z,3.27
2022-11-03T01:01:21.201Z,3.00
2022-11-03T01:04:05.491Z,3.10
2022-11-03T01:06:52.586Z,3.40
2022-11-03T01:09:22.550Z,3.63
2022-11-03T01:11:58.047Z,3.27
2022-11-03T01:14:27.571Z,3.50
2022-11-03T01:16:55.780Z,3.40
2022-11-03T01:19:25.218Z,3.70
2022-11-03T01:21:53.485Z,3.70
2022-11-03T01:24:22.142Z,2.73
2022-11-03T01:26:50.003Z,3.13
2022-11-03T01:29:19.346Z,3.07
2022-11-03T01:31:47.420Z,2.80
2022-11-03T01:34:16.689Z,3.20
2022-11-03T01:36:45.163Z,3.60
2022-11-03T01:39:14.100Z,3.20
2022-11-03T01:41:43.061Z,3.20
2022-11-03T01:44:47.412Z,3.23
2022-11-03T01:47:22.376Z,2.90
2022-11-03T01:49:53.391Z,2.83
2022-11-03T01:52:26.751Z,3.13
2022-11-03T01:55:00.723Z,3.40
2022-11-03T01:57:34.958Z,3.73
2022-11-03T02:00:05.809Z,3.07
2022-11-03T02:02:33.732Z,3.10
2022-11-03T02:05:04.667Z,2.83
2022-11-03T02:07:37.875Z,3.33
2022-11-03T02:10:06.930Z,3.07
2022-11-03T02:12:35.659Z,3.73
2022-11-03T02:15:08.482Z,3.13
2022-11-03T02:17:38.361Z,2.93
2022-11-03T02:20:11.140Z,3.30
2022-11-03T02:23:04.222Z,3.00
2022-11-03T02:25:41.281Z,2.90
2022-11-03T02:28:09.557Z,3.50
2022-11-03T02:30:42.933Z,3.40
2022-11-03T02:33:21.474Z,3.27
2022-11-03T02:35:55.760Z,2.83
2022-11-03T02:38:26.682Z,3.20
2022-11-03T02:40:58.643Z,2.90
2022-11-03T02:43:28.677Z,3.37
2022-11-03T02:45:56.988Z,3.20
2022-11-03T02:48:24.832Z,3.40
2022-11-03T02:50:52.866Z,3.10
2022-11-03T02:53:21.139Z,2.70
2022-11-03T02:55:59.190Z,3.23
2022-11-03T02:58:36.023Z,3.37
2022-11-03T03:01:14.803Z,3.80
2022-11-03T03:03:48.676Z,2.90
2022-11-03T03:06:20.906Z,2.83
2022-11-03T03:08:52.049Z,3.63
2022-11-03T03:11:37.438Z,3.23
2022-11-03T03:14:10.851Z,3.37
2022-11-03T03:16:45.141Z,3.10
2022-11-03T03:19:22.718Z,3.37
2022-11-03T03:21:53.999Z,3.13
2022-11-03T03:24:30.007Z,3.40
2022-11-03T03:27:00.942Z,3.57
2022-11-03T03:29:33.660Z,3.40
2022-11-03T03:32:07.487Z,3.07
2022-11-03T03:34:37.601Z,2.77
2022-11-03T03:37:07.569Z,3.17
2022-11-03T03:39:38.653Z,3.53
2022-11-03T03:42:11.073Z,3.03
2022-11-03T03:44:42.459Z,3.97
2022-11-03T03:47:14.493Z,3.33
2022-11-03T03:49:42.482Z,3.40
2022-11-03T03:52:10.785Z,3.20
2022-11-03T03:54:38.626Z,3.17
2022-11-03T03:57:13.895Z,3.17
2022-11-03T03:59:41.722Z,3.10
2022-11-03T04:02:10.014Z,3.40
2022-11-03T04:04:38.205Z,3.03
2022-11-03T04:07:23.610Z,3.03
2022-11-03T04:09:51.691Z,2.90
2022-11-03T04:12:38.201Z,3.07
2022-11-03T04:15:24.131Z,3.27
2022-11-03T04:18:09.784Z,3.20
2022-11-03T04:20:55.386Z,3.30
2022-11-03T04:23:23.253Z,3.60
2022-11-03T04:25:54.173Z,2.90
2022-11-03T04:28:23.632Z,3.33
2022-11-03T04:30:54.652Z,2.80
2022-11-03T04:33:25.885Z,3.53
2022-11-03T04:35:54.780Z,3.23
2022-11-03T04:38:24.645Z,2.97
2022-11-03T04:40:55.533Z,2.83
2022-11-03T04:43:32.514Z,2.90
2022-11-03T04:46:00.468Z,2.90
2022-11-03T04:48:29.855Z,2.60
2022-11-03T04:51:00.461Z,3.47
2022-11-03T04:53:31.893Z,2.87
2022-11-03T04:56:06.979Z,3.17
2022-11-03T04:58:37.302Z,3.10
2022-11-03T05:01:07.772Z,2.80
2022-11-03T05:03:37.273Z,2.97
2022-11-03T05:06:12.648Z,2.87
2022-11-03T05:08:40.770Z,2.27
2022-11-03T05:11:18.171Z,2.97
2022-11-03T05:13:47.769Z,4.87
2022-11-03T05:16:15.846Z,3.50
2022-11-03T05:18:45.325Z,3.00
2022-11-03T05:21:16.677Z,3.00
2022-11-03T05:23:48.117Z,3.40
2022-11-03T05:26:19.404Z,10.20
2022-11-03T05:28:53.373Z,6.63
2022-11-03T05:31:27.027Z,3.63
2022-11-03T05:33:57.943Z,3.73
2022-11-03T05:36:27.841Z,4.03
2022-11-03T05:39:00.185Z,4.57
2022-11-03T05:41:30.428Z,4.93
2022-11-03T05:44:02.967Z,4.30
2022-11-03T05:46:32.723Z,4.37
2022-11-03T05:49:03.405Z,3.90
2022-11-03T05:51:35.135Z,3.30
2022-11-03T05:54:05.677Z,3.20
2022-11-03T05:56:35.913Z,2.87
2022-11-03T05:59:08.280Z,2.77
2022-11-03T06:01:38.238Z,3.60
2022-11-03T06:04:21.439Z,3.20
2022-11-03T06:06:53.475Z,3.07
2022-11-03T06:09:24.432Z,2.90
2022-11-03T06:11:54.812Z,2.80
2022-11-03T06:14:25.946Z,2.93
2022-11-03T06:16:55.504Z,2.80
2022-11-03T06:19:27.657Z,3.50
2022-11-03T06:21:58.891Z,3.93
2022-11-03T06:24:31.023Z,3.70
2022-11-03T06:26:59.479Z,6.43
2022-11-03T06:29:33.225Z,4.70
2022-11-03T06:32:01.341Z,5.80
2022-11-03T06:34:42.542Z,5.83
2022-11-03T06:37:23.429Z,5.73
2022-11-03T06:39:52.830Z,5.20
2022-11-03T06:42:24.738Z,6.77
2022-11-03T06:44:57.185Z,5.50
2022-11-03T06:47:26.002Z,4.40
2022-11-03T06:49:56.505Z,5.20
2022-11-03T06:52:27.745Z,4.50
2022-11-03T06:55:01.614Z,4.93
2022-11-03T06:57:34.188Z,4.77
2022-11-03T07:00:28.075Z,3.27
2022-11-03T07:02:57.880Z,3.83
2022-11-03T07:05:28.136Z,3.90
2022-11-03T07:07:58.494Z,4.43
2022-11-03T07:10:28.786Z,4.50
2022-11-03T07:12:58.565Z,4.50
2022-11-03T07:15:33.680Z,6.47
2022-11-03T07:18:02.787Z,6.67
2022-11-03T07:20:30.684Z,5.83
2022-11-03T07:23:02.884Z,4.83
2022-11-03T07:25:32.733Z,5.10
2022-11-03T07:28:04.685Z,4.70
2022-11-03T07:30:36.180Z,4.33
2022-11-03T07:33:13.349Z,4.67
2022-11-03T07:36:13.061Z,4.43
2022-11-03T07:38:31.487Z,4.63
2022-11-03T07:41:00.871Z,4.17
2022-11-03T07:43:32.658Z,4.63
2022-11-03T07:46:03.480Z,4.60
2022-11-03T07:48:37.524Z,5.00
2022-11-03T07:51:16.980Z,4.10
2022-11-03T07:53:47.109Z,3.53
2022-11-03T07:56:19.392Z,3.57
2022-11-03T07:58:48.827Z,3.17
2022-11-03T08:01:38.057Z,3.33
2022-11-03T08:04:08.204Z,3.27
2022-11-03T08:06:36.069Z,4.83
2022-11-03T08:09:04.292Z,5.23
2022-11-03T08:11:32.181Z,3.73
2022-11-03T08:14:00.094Z,3.43
2022-11-03T08:16:28.005Z,3.40
2022-11-03T08:18:57.215Z,4.47
2022-11-03T08:21:25.085Z,4.00
2022-11-03T08:23:53.228Z,5.17
2022-11-03T08:26:21.429Z,6.90
2022-11-03T08:28:49.353Z,5.50
2022-11-03T08:31:17.590Z,4.27
2022-11-03T08:33:45.704Z,4.40
2022-11-03T08:36:15.027Z,4.40
2022-11-03T08:38:42.894Z,4.60
2022-11-03T08:41:10.844Z,4.40
2022-11-03T08:43:38.770Z,3.67
2022-11-03T08:46:15.724Z,4.30
2022-11-03T08:48:44.930Z,3.83
2022-11-03T08:51:14.807Z,4.17
2022-11-03T08:53:43.560Z,4.33
2022-11-03T08:56:13.192Z,4.40
2022-11-03T08:58:42.328Z,3.83
2022-11-03T09:01:10.362Z,4.10
2022-11-03T09:03:38.313Z,4.20
2022-11-03T09:06:06.469Z,3.73
2022-11-03T09:11:23.634Z,3.93
2022-11-03T09:13:51.473Z,4.70
2022-11-03T09:16:19.343Z,8.07
2022-11-03T09:18:47.210Z,4.33
2022-11-03T09:21:15.538Z,3.70
2022-11-03T09:23:44.769Z,3.87
2022-11-03T09:26:12.640Z,3.37
2022-11-03T09:28:40.514Z,3.20
2022-11-03T09:31:08.388Z,3.13
2022-11-03T09:33:36.249Z,4.20
2022-11-03T09:36:04.145Z,6.17
2022-11-03T09:38:31.990Z,4.73
2022-11-03T09:41:02.184Z,4.37
2022-11-03T09:43:30.162Z,4.10
2022-11-03T09:45:58.064Z,4.90
2022-11-03T09:48:27.001Z,4.60
2022-11-03T09:50:56.165Z,4.30
2022-11-03T09:53:24.049Z,3.73
2022-11-03T09:55:51.970Z,3.47
2022-11-03T09:58:21.188Z,3.47
2022-11-03T10:00:49.184Z,3.13
2022-11-03T10:03:20.324Z,3.40
2022-11-03T10:05:49.032Z,3.10
2022-11-03T10:08:23.122Z,2.83
2022-11-03T10:10:51.339Z,3.00
2022-11-03T10:13:27.999Z,3.23
2022-11-03T10:15:56.110Z,3.03
2022-11-03T10:18:24.636Z,6.80
2022-11-03T10:20:52.478Z,3.53
2022-11-03T10:23:20.355Z,3.23
2022-11-03T10:25:48.254Z,3.07
2022-11-03T10:28:21.159Z,3.00
2022-11-03T10:31:11.307Z,3.37
2022-11-03T10:33:41.705Z,3.13
2022-11-03T10:36:25.349Z,2.70
2022-11-03T10:38:53.746Z,3.70
2022-11-03T10:41:23.863Z,3.57
2022-11-03T10:44:02.865Z,4.33
2022-11-03T10:49:21.592Z,3.60
2022-11-03T10:51:52.128Z,3.20
2022-11-03T10:54:22.543Z,3.37
2022-11-03T10:56:51.887Z,3.27
2022-11-03T10:59:21.821Z,2.93
2022-11-03T11:01:51.174Z,2.80
2022-11-03T11:04:20.812Z,2.27
2022-11-03T11:06:49.383Z,2.67
2022-11-03T11:09:22.144Z,2.87
2022-11-03T11:12:05.614Z,2.60
2022-11-03T11:14:39.739Z,2.77
2022-11-03T11:17:41.447Z,2.67
2022-11-03T11:20:30.377Z,2.80
2022-11-03T11:23:48.971Z,2.83
2022-11-03T11:26:32.800Z,2.90
2022-11-03T11:29:46.033Z,2.40
2022-11-03T11:32:53.080Z,2.80
2022-11-03T11:36:06.298Z,2.40
2022-11-03T11:39:11.807Z,2.30
2022-11-03T11:42:13.227Z,3.00
2022-11-03T11:44:49.831Z,2.90
2022-11-03T11:47:32.243Z,3.20
2022-11-03T11:50:31.650Z,2.97
2022-11-03T11:53:20.668Z,2.80
2022-11-03T11:55:51.570Z,3.03
2022-11-03T11:58:27.481Z,2.90
2022-11-03T12:01:01.003Z,2.90
2022-11-03T12:03:37.216Z,3.50
2022-11-03T12:06:05.672Z,3.13
2022-11-03T12:08:35.400Z,2.67
2022-11-03T12:11:05.329Z,2.70
2022-11-03T12:13:41.973Z,2.77
2022-11-03T12:16:10.299Z,2.90
2022-11-03T12:18:44.770Z,2.70
2022-11-03T12:21:48.840Z,2.80
2022-11-03T12:24:54.129Z,2.73
2022-11-03T12:27:43.373Z,3.00
2022-11-03T12:30:17.233Z,3.60
2022-11-03T12:32:45.815Z,3.70
2022-11-03T12:35:14.528Z,3.20
2022-11-03T12:37:43.051Z,2.77
2022-11-03T12:40:14.169Z,2.93
2022-11-03T12:42:42.183Z,2.83
2022-11-03T12:45:10.935Z,3.20
2022-11-03T12:47:38.821Z,4.00
2022-11-03T12:50:07.362Z,3.00
2022-11-03T12:52:35.247Z,2.80
2022-11-03T12:55:03.133Z,2.73
2022-11-03T12:57:32.396Z,3.00
2022-11-03T13:00:00.416Z,3.10
2022-11-03T13:02:28.353Z,3.13
2022-11-03T13:04:56.356Z,2.90
2022-11-03T13:07:27.896Z,2.80
2022-11-03T13:09:56.999Z,3.30
2022-11-03T13:12:35.091Z,3.00
2022-11-03T13:15:07.191Z,3.43
2022-11-03T13:17:59.080Z,3.03
2022-11-03T13:20:23.019Z,3.40
2022-11-03T13:22:50.970Z,2.97
2022-11-03T13:25:19.595Z,3.00
2022-11-03T13:27:48.969Z,2.77
2022-11-03T13:30:18.330Z,3.83
2022-11-03T13:32:46.295Z,3.30
2022-11-03T13:35:14.312Z,3.40
2022-11-03T13:37:42.728Z,3.40
2022-11-03T13:40:29.156Z,3.37
2022-11-03T13:43:00.814Z,3.47
2022-11-03T13:45:30.078Z,3.17
2022-11-03T13:50:46.292Z,3.13
2022-11-03T13:56:06.853Z,2.20
2022-11-03T14:01:26.101Z,3.13
2022-11-03T14:06:41.942Z,2.70
2022-11-03T14:09:10.317Z,2.63
2022-11-03T14:11:55.531Z,3.00
2022-11-03T14:14:23.438Z,2.97
2022-11-03T14:16:52.741Z,2.87
2022-11-03T14:19:20.643Z,2.53
2022-11-03T14:21:48.534Z,3.63
2022-11-03T14:24:16.784Z,5.07
2022-11-03T14:26:44.773Z,2.80
2022-11-03T14:29:12.793Z,2.70
2022-11-03T14:31:40.998Z,2.70
2022-11-03T14:34:10.304Z,2.97
2022-11-03T14:36:38.196Z,3.17
2022-11-03T14:39:06.062Z,2.73
2022-11-03T14:41:51.337Z,3.10
2022-11-03T14:44:19.440Z,2.67
2022-11-03T14:46:47.349Z,2.90
2022-11-03T14:49:16.631Z,3.80
2022-11-03T14:51:44.547Z,4.20
2022-11-03T14:54:12.391Z,4.47
2022-11-03T14:56:40.230Z,2.77
2022-11-03T14:59:08.117Z,3.27
2022-11-03T15:01:36.660Z,3.27
2022-11-03T15:04:04.718Z,3.70
2022-11-03T15:06:33.918Z,4.67
2022-11-03T15:09:01.876Z,4.00
2022-11-03T15:11:29.831Z,3.73
2022-11-03T15:13:57.893Z,4.33
2022-11-03T15:16:25.908Z,3.83
2022-11-03T15:18:53.788Z,3.80
2022-11-03T15:21:21.725Z,3.57
2022-11-03T15:26:38.936Z,3.73
2022-11-03T15:29:06.822Z,3.70
2022-11-03T15:31:34.671Z,3.37
2022-11-03T15:34:05.996Z,3.33
2022-11-03T15:36:36.633Z,4.93
2022-11-03T15:39:05.854Z,11.20
2022-11-03T15:41:33.688Z,4.90
2022-11-03T15:44:01.539Z,4.07
2022-11-03T15:46:29.495Z,3.80
2022-11-03T15:48:57.592Z,3.87
2022-11-03T15:51:25.898Z,4.57
2022-11-03T15:53:58.531Z,4.43
2022-11-03T15:56:28.532Z,4.10
2022-11-03T15:58:56.649Z,4.50
2022-11-03T16:01:24.847Z,4.90
2022-11-03T16:03:53.150Z,4.20
2022-11-03T16:06:27.048Z,4.43
2022-11-03T16:09:08.474Z,3.77
2022-11-03T16:11:37.710Z,4.67
2022-11-03T16:14:05.544Z,5.10
2022-11-03T16:16:33.393Z,6.27
2022-11-03T16:19:01.264Z,5.00
2022-11-03T16:21:29.808Z,4.30
2022-11-03T16:23:57.624Z,3.80
2022-11-03T16:26:25.467Z,4.20
2022-11-03T16:28:54.875Z,4.57
2022-11-03T16:31:22.717Z,4.40
2022-11-03T16:33:51.658Z,4.70
2022-11-03T16:36:20.072Z,4.50
2022-11-03T16:38:48.085Z,4.30
2022-11-03T16:41:16.171Z,4.97
2022-11-03T16:43:44.073Z,4.43
2022-11-03T16:46:13.264Z,4.67
2022-11-03T16:48:41.110Z,4.97
2022-11-03T16:51:09.076Z,4.77
2022-11-03T16:53:36.989Z,4.60
2022-11-03T16:56:05.193Z,4.50
2022-11-03T16:58:33.086Z,4.60
2022-11-03T17:01:00.959Z,4.33
2022-11-03T17:03:30.208Z,5.00
2022-11-03T17:05:58.062Z,4.80
2022-11-03T17:08:51.443Z,4.57
2022-11-03T17:11:13.821Z,4.67
2022-11-03T17:13:41.777Z,4.73
2022-11-03T17:16:09.711Z,4.60
2022-11-03T17:18:38.946Z,4.10
2022-11-03T17:21:07.112Z,4.63
2022-11-03T17:23:34.944Z,4.30
2022-11-03T17:26:04.096Z,4.97
2022-11-03T17:28:32.477Z,4.90
2022-11-03T17:31:00.478Z,5.67
2022-11-03T17:33:28.486Z,4.63
2022-11-03T17:35:58.178Z,9.37
2022-11-03T17:38:27.185Z,7.93
2022-11-03T17:40:55.172Z,6.43
2022-11-03T17:43:26.975Z,6.30
2022-11-03T17:45:55.113Z,6.83
2022-11-03T17:48:24.058Z,5.97
2022-11-03T17:50:54.612Z,5.80
2022-11-03T17:53:26.293Z,6.00
2022-11-03T17:56:27.737Z,6.03
2022-11-03T17:58:47.008Z,5.37
2022-11-03T18:01:21.070Z,8.47
2022-11-03T18:03:48.978Z,9.77
2022-11-03T18:06:19.447Z,8.30
2022-11-03T18:08:49.536Z,7.37
2022-11-03T18:11:40.241Z,8.67
2022-11-03T18:14:08.096Z,9.17
2022-11-03T18:16:36.002Z,6.57
2022-11-03T18:19:04.405Z,16.17
2022-11-03T18:21:32.292Z,13.47
2022-11-03T18:24:01.496Z,9.10
2022-11-03T18:26:29.307Z,7.87
2022-11-03T18:28:57.241Z,6.10
2022-11-03T18:31:34.003Z,5.70
2022-11-03T18:34:04.012Z,6.07
2022-11-03T18:36:33.431Z,6.00
2022-11-03T18:39:03.169Z,5.37
2022-11-03T18:41:39.411Z,6.10
2022-11-03T18:44:22.656Z,5.77
2022-11-03T18:46:51.391Z,5.87
2022-11-03T18:49:20.294Z,5.43
2022-11-03T18:51:50.529Z,5.50
2022-11-03T18:54:21.511Z,5.47
2022-11-03T18:56:49.854Z,4.80
2022-11-03T18:59:22.055Z,5.13
2022-11-03T19:01:50.417Z,7.57
2022-11-03T19:04:18.469Z,6.67
2022-11-03T19:06:47.791Z,8.13
2022-11-03T19:09:19.605Z,13.53
2022-11-03T19:11:50.457Z,8.90
2022-11-03T19:14:24.033Z,8.80
2022-11-03T19:17:21.387Z,10.77
2022-11-03T19:19:41.426Z,8.37
2022-11-03T19:22:14.025Z,7.23
2022-11-03T19:24:42.058Z,7.70
2022-11-03T19:27:17.970Z,8.27
2022-11-03T19:29:47.595Z,7.37
2022-11-03T19:32:20.942Z,6.93
2022-11-03T19:34:52.648Z,6.80
2022-11-03T19:37:20.501Z,6.50
2022-11-03T19:39:48.607Z,7.07
2022-11-03T19:42:27.503Z,6.83
2022-11-03T19:44:55.938Z,5.73
2022-11-03T19:47:28.347Z,5.87
2022-11-03T19:50:00.737Z,6.63
2022-11-03T19:52:30.856Z,6.87
2022-11-03T19:55:01.590Z,5.83
2022-11-03T19:57:30.922Z,5.50
2022-11-03T19:59:59.616Z,7.17
2022-11-03T20:02:28.819Z,8.77
2022-11-03T20:04:56.785Z,10.70
2022-11-03T20:07:31.060Z,9.57
2022-11-03T20:10:00.591Z,10.17
2022-11-03T20:12:30.737Z,9.47
2022-11-03T20:14:58.750Z,10.10
2022-11-03T20:17:27.183Z,18.30
2022-11-03T20:19:55.069Z,23.07
2022-11-03T20:22:26.849Z,17.90
2022-11-03T20:25:01.568Z,14.00
2022-11-03T20:27:30.844Z,18.87
2022-11-03T20:29:59.845Z,16.90
2022-11-03T20:32:27.734Z,15.00
2022-11-03T20:34:55.716Z,10.80
2022-11-03T20:37:23.575Z,8.00
2022-11-03T20:39:51.458Z,5.90
2022-11-03T20:42:22.165Z,5.30
2022-11-03T20:44:51.835Z,5.30
2022-11-03T20:47:20.865Z,4.80
2022-11-03T20:49:48.696Z,6.10
2022-11-03T20:52:17.168Z,7.40
2022-11-03T20:54:45.407Z,7.30
2022-11-03T20:57:14.158Z,8.87
2022-11-03T20:59:42.478Z,8.13
2022-11-03T21:02:13.856Z,7.77
2022-11-03T21:04:43.081Z,7.70
2022-11-03T21:07:12.828Z,7.50
2022-11-03T21:09:40.777Z,7.90
2022-11-03T21:12:13.023Z,5.33
2022-11-03T21:15:03.992Z,6.73
2022-11-03T21:17:49.957Z,8.80
2022-11-03T21:20:17.909Z,6.47
2022-11-03T21:22:52.527Z,6.47
2022-11-03T21:25:23.269Z,6.40
2022-11-03T21:27:51.762Z,5.83
2022-11-03T21:30:20.158Z,5.83
2022-11-03T21:32:49.693Z,5.13
2022-11-03T21:35:21.183Z,5.93
2022-11-03T21:37:49.250Z,5.77
2022-11-03T21:40:17.625Z,5.77
2022-11-03T21:43:02.978Z,5.77
2022-11-03T21:45:30.833Z,5.00
2022-11-03T21:48:18.030Z,6.13
2022-11-03T21:50:46.164Z,8.43
2022-11-03T21:53:14.245Z,9.07
2022-11-03T21:55:42.307Z,6.80
2022-11-03T21:58:10.500Z,6.23
2022-11-03T22:00:38.391Z,6.07
2022-11-03T22:03:07.921Z,4.97
2022-11-03T22:05:36.063Z,5.37
2022-11-03T22:08:03.961Z,5.87
2022-11-03T22:10:31.826Z,5.83
2022-11-03T22:12:59.684Z,5.43
2022-11-03T22:15:41.448Z,5.87
2022-11-03T22:18:10.921Z,5.30
2022-11-03T22:20:56.658Z,6.00
2022-11-03T22:23:42.069Z,4.80
2022-11-03T22:26:29.418Z,3.70
2022-11-03T22:29:16.345Z,2.80
2022-11-03T22:31:44.242Z,2.83
2022-11-03T22:34:31.250Z,2.83
2022-11-03T22:36:59.276Z,2.70
2022-11-03T22:39:44.621Z,2.80
2022-11-03T22:42:30.549Z,2.80
2022-11-03T22:45:16.129Z,2.90
2022-11-03T22:47:44.019Z,2.37
2022-11-03T22:50:13.288Z,5.40
2022-11-03T22:52:41.119Z,5.47
2022-11-03T22:55:08.106Z,4.57
2022-11-03T22:57:35.994Z,4.90
2022-11-03T23:00:05.562Z,4.63
2022-11-03T23:02:33.625Z,4.63
2022-11-03T23:05:01.549Z,4.17
2022-11-03T23:07:33.033Z,4.33
2022-11-03T23:10:05.018Z,3.77
2022-11-03T23:12:33.240Z,3.60
2022-11-03T23:15:18.669Z,3.27
2022-11-03T23:18:04.086Z,3.40
2022-11-03T23:20:49.699Z,4.50
2022-11-03T23:23:32.792Z,4.70
2022-11-03T23:26:00.811Z,4.90
2022-11-03T23:28:28.669Z,4.90
2022-11-03T23:30:56.507Z,5.13
2022-11-03T23:33:24.430Z,4.70
2022-11-03T23:35:52.297Z,4.57
2022-11-03T23:38:21.507Z,4.60
2022-11-03T23:40:49.600Z,4.53
2022-11-03T23:43:17.513Z,4.97
2022-11-03T23:46:02.571Z,4.63
2022-11-03T23:48:48.658Z,4.93
2022-11-03T23:51:17.369Z,4.50
2022-11-03T23:53:47.188Z,4.30
2022-11-03T23:56:33.792Z,4.50
2022-11-03T23:59:01.914Z,4.47
